New Richmond, WI

05:42 PM CST del 23 novembre 2014 (GMT -0600)
New Richmond Municipal | Change Station
CLOSE
Current Station
Aeroporto
Location: New Richmond,
Altitudine: 997 ft
Stazioni meteo nelle vicinanze
Avvisi attivi: Dense Fog Advisory

Alt. 997 ft 45.15 °N, 92.53 °W | Updated 7 minutes ago

Overcast
Coperto
37 °F
Sembra 35 °F
N
4
Vento Variabile Vento da ONO

Oggi
Massima -- | Minima -- °F
--% Possibilità di precip.
Ieri
Massima -- | Minima -- °F
Precip. -- in
7:18 AM 4:33 PM
Luna crescente, 3% visible
Pressione 29.38 in
Visibilità 5.0 miglia
Nuvole Coperto 3500 ft
Raffreddamento del vento 35 °F
Punto di rugiada 37 °F
Umidità 100%
Piovosità 0.09 in
Spessore del manto nevoso Non disponibile.
Raggi UV 0 fuori da 12
Polline .10 fuori da 12
Qualità dell'aria Non disponibile.
Flu Activity Non disponibile.
METAR KRNH 232335Z AUTO 29003KT 5SM BR OVC035 03/03 A2938 RMK AO2 T00300030

More Conditions Fewer Conditions

Pressione 29.38 in
Visibilità 5.0 miglia
Nuvole Coperto 3500 ft
Raffreddamento del vento 35 °F
Punto di rugiada 37 °F
Umidità 100%
Piovosità 0.09 in
Spessore del manto nevoso Non disponibile.
Raggi UV 0 fuori da 12
Polline .10 fuori da 12
Qualità dell'aria Non disponibile.
Flu Activity Non disponibile.
METAR KRNH 232335Z AUTO 29003KT 5SM BR OVC035 03/03 A2938 RMK AO2 T00300030

More Conditions Fewer Conditions

10-Day Weather Forecast

Almanac

Astronomia

Nov. 23, 2014 Alba Tramonto
Ora attuale
Crepuscolo civile
Crepuscolo nautico
Crepuscolo astronomico
Luna
Estensione della luce visibile
Lunghezza del giorno
Tomorrow will be .
, % of the Moon is Illuminated

Gli estremi di oggi

State Highs State Lows

Community

WunderPhotos

Upload Photos

1,773,211 foto caricate!

WunderBlogs® & News

Nearby

Qualità dell'aria

  Qualità dell'aria Indice AQ Inquinante
Not available.

Profondità neve

Stazione Profondità Altitudine

Attività sismica

Città  Distanza Mag. Data & Ora
Minimo Magnitudo Mostrato è 2.5.

Temperature delle acque costiere

Località Temperatura

Stazioni meteo nelle vicinanze